Brownsville, TX

11:06 PM CDT on September 14, 2014 (GMT -0500)
Brownsville-South Padre I International | Change Station
CLOSE
Current Station
Airport
Location: Brownsville,
Elevation: 20 ft
Nearby Weather Stations
Active Advisory: Areal Flood Advisory

Elev 20 ft 25.91 °N, 97.42 °W | Updated 13 minutes ago

Mostly Cloudy
Mostly Cloudy
78 °F
Feels Like 78 °F
N
6
Wind Variable Wind from North

Today
High -- | Low -- °F
--% Chance of Precip.
Yesterday
High -- | Low -- °F
Precip. -- in
7:15 AM 7:34 PM
Waning Gibbous, 59% visible
Pressure 30.05 in
Visibility 9.0 miles
Clouds Few 2000 ft
Dew Point 76 °F
Humidity 93%
Rainfall 0.78 in
Snow Depth Not available.
UV 0 out of 12
Pollen 6.00 out of 12
Ozone Good
PM2.5 Good
Flu Activity Not available.
METAR KBRO 150353Z AUTO 35005KT 9SM FEW020 26/24 A3006 RMK AO2 SLP176 T02560244 $

More Conditions Fewer Conditions

Pressure 30.05 in
Visibility 9.0 miles
Clouds Few 2000 ft
Dew Point 76 °F
Humidity 93%
Rainfall 0.78 in
Snow Depth Not available.
UV 0 out of 12
Pollen 6.00 out of 12
Ozone Good
PM2.5 Good
Flu Activity Not available.
METAR KBRO 150353Z AUTO 35005KT 9SM FEW020 26/24 A3006 RMK AO2 SLP176 T02560244 $

More Conditions Fewer Conditions

10-Day Weather Forecast

Almanac

Astronomy

Sep. 14, 2014 Rise Set
Actual Time 7:15 AM CDT 7:34 PM CDT
Civil Twilight 6:52 AM CDT 7:57 PM CDT
Nautical Twilight 6:25 AM CDT 8:24 PM CDT
Astronomical Twilight 5:57 AM CDT 8:52 PM CDT
Moon No Moon Rise 12:49 PM CDT (9/14)
Length of Visible Light 13h 05m
Length of Day
12h 19m
Tomorrow will be 1m 30s shorter.
Waning Gibbous, 59% of the Moon is Illuminated
Sep 15
Waning Gibbous
Sep 15
Last Quarter
Sep 24
New
Oct 1
First Quarter
Oct 8
Full

Today's Extremes

State Highs State Lows

Community

WunderPhotos

Upload Photos

1,753,398 photos uploaded!

Nearby

Air Quality

  Air Quality AQ Index Pollutant
Yesterday Good
PM2.5
Yesterday Good
OZONE
Current Good
PM2.5
Current Good
OZONE
Sunday Good
PM10
Sunday Good
OZONE
Monday Good
PM10
Monday Good
OZONE
Tuesday Good
PM10
Tuesday Good
OZONE

Snow Depth

Station Depth Elevation
No new snow has been reported.

Earthquake Activity

City Distance Mag. Time & Date
No recent earthquake activity has been reported nearby.
Minimum magnitude displayed is 2.5.

Coastal Water Temperatures

Place Temperature
Port Isabel, TX 82.9 °F
Baffin Bay Point of Rocks, TX 78.1 °F
South Bird Island, TX 79.0 °F
Malaquite Beach (Corpus Christi), TX 82.0 °F
Packery Channel, TX 80.1 °F

Nearby Weather Stations